sensor_id;sensor_type;location;lat;lon;timestamp;pressure;altitude;pressure_sealevel;temperature;humidity
77005;BME280;67261;53.132;18.006;2024-01-27T00:01:02;101176.38;;;5.20;77.74
77005;BME280;67261;53.132;18.006;2024-01-27T00:03:44;101180.04;;;5.18;77.79
77005;BME280;67261;53.132;18.006;2024-01-27T00:06:10;101183.66;;;5.16;77.83
77005;BME280;67261;53.132;18.006;2024-01-27T00:08:37;101182.32;;;5.15;77.99
77005;BME280;67261;53.132;18.006;2024-01-27T00:11:04;101182.55;;;5.14;77.91
77005;BME280;67261;53.132;18.006;2024-01-27T00:13:31;101182.67;;;5.15;78.02
77005;BME280;67261;53.132;18.006;2024-01-27T00:15:58;101182.31;;;5.15;78.13
77005;BME280;67261;53.132;18.006;2024-01-27T00:18:24;101178.83;;;5.15;78.02
77005;BME280;67261;53.132;18.006;2024-01-27T00:20:51;101180.03;;;5.15;78.04
77005;BME280;67261;53.132;18.006;2024-01-27T00:23:18;101178.23;;;5.16;77.89
77005;BME280;67261;53.132;18.006;2024-01-27T00:25:45;101182.29;;;5.16;78.04
77005;BME280;67261;53.132;18.006;2024-01-27T00:28:12;101189.27;;;5.14;77.88
77005;BME280;67261;53.132;18.006;2024-01-27T00:30:39;101187.13;;;5.12;78.25
77005;BME280;67261;53.132;18.006;2024-01-27T00:33:06;101186.69;;;5.10;78.29
77005;BME280;67261;53.132;18.006;2024-01-27T00:35:33;101191.55;;;5.09;78.34
77005;BME280;67261;53.132;18.006;2024-01-27T00:38:00;101198.77;;;5.08;78.33
77005;BME280;67261;53.132;18.006;2024-01-27T00:40:26;101195.48;;;5.08;78.59
77005;BME280;67261;53.132;18.006;2024-01-27T00:42:53;101188.98;;;5.08;78.67
77005;BME280;67261;53.132;18.006;2024-01-27T00:45:21;101202.02;;;5.07;78.84
77005;BME280;67261;53.132;18.006;2024-01-27T00:47:50;101200.64;;;5.07;78.96
77005;BME280;67261;53.132;18.006;2024-01-27T00:50:17;101199.73;;;5.05;78.84
77005;BME280;67261;53.132;18.006;2024-01-27T00:52:44;101201.67;;;5.05;79.09
77005;BME280;67261;53.132;18.006;2024-01-27T00:55:11;101197.86;;;5.04;78.92
77005;BME280;67261;53.132;18.006;2024-01-27T00:57:38;101198.36;;;5.01;79.19
77005;BME280;67261;53.132;18.006;2024-01-27T01:00:07;101204.52;;;4.99;79.17
77005;BME280;67261;53.132;18.006;2024-01-27T01:02:34;101198.55;;;4.97;79.05
77005;BME280;67261;53.132;18.006;2024-01-27T01:05:01;101198.09;;;4.95;78.97
77005;BME280;67261;53.132;18.006;2024-01-27T01:07:31;101196.44;;;4.97;78.95
77005;BME280;67261;53.132;18.006;2024-01-27T01:09:58;101203.95;;;4.97;79.17
77005;BME280;67261;53.132;18.006;2024-01-27T01:12:25;101197.86;;;4.97;78.93
77005;BME280;67261;53.132;18.006;2024-01-27T01:14:52;101209.97;;;4.96;78.81
77005;BME280;67261;53.132;18.006;2024-01-27T01:17:19;101205.54;;;4.95;78.80
77005;BME280;67261;53.132;18.006;2024-01-27T01:19:46;101208.52;;;4.94;78.75
77005;BME280;67261;53.132;18.006;2024-01-27T01:22:12;101206.25;;;4.95;78.71
77005;BME280;67261;53.132;18.006;2024-01-27T01:24:39;101204.02;;;4.94;78.71
77005;BME280;67261;53.132;18.006;2024-01-27T01:27:06;101204.98;;;4.95;78.53
77005;BME280;67261;53.132;18.006;2024-01-27T01:29:33;101203.75;;;4.95;78.51
77005;BME280;67261;53.132;18.006;2024-01-27T01:32:00;101204.08;;;4.95;78.50
77005;BME280;67261;53.132;18.006;2024-01-27T01:34:29;101202.01;;;4.95;78.47
77005;BME280;67261;53.132;18.006;2024-01-27T01:36:56;101200.19;;;4.93;78.47
77005;BME280;67261;53.132;18.006;2024-01-27T01:39:23;101199.48;;;4.93;78.49
77005;BME280;67261;53.132;18.006;2024-01-27T01:41:50;101199.95;;;4.92;78.55
77005;BME280;67261;53.132;18.006;2024-01-27T01:44:17;101192.91;;;4.92;78.50
77005;BME280;67261;53.132;18.006;2024-01-27T01:46:44;101194.46;;;4.90;78.37
77005;BME280;67261;53.132;18.006;2024-01-27T01:49:11;101192.44;;;4.86;78.66
77005;BME280;67261;53.132;18.006;2024-01-27T01:51:38;101191.69;;;4.85;78.56
77005;BME280;67261;53.132;18.006;2024-01-27T01:54:06;101197.85;;;4.84;78.57
77005;BME280;67261;53.132;18.006;2024-01-27T01:56:33;101195.39;;;4.84;78.45
77005;BME280;67261;53.132;18.006;2024-01-27T01:59:00;101195.21;;;4.84;78.42
77005;BME280;67261;53.132;18.006;2024-01-27T02:01:29;101193.47;;;4.84;78.36
77005;BME280;67261;53.132;18.006;2024-01-27T02:03:57;101195.11;;;4.83;78.24
77005;BME280;67261;53.132;18.006;2024-01-27T02:06:24;101189.82;;;4.81;78.27
77005;BME280;67261;53.132;18.006;2024-01-27T02:08:51;101189.91;;;4.79;78.11
77005;BME280;67261;53.132;18.006;2024-01-27T02:11:18;101187.74;;;4.80;78.01
77005;BME280;67261;53.132;18.006;2024-01-27T02:13:44;101192.98;;;4.80;78.01
77005;BME280;67261;53.132;18.006;2024-01-27T02:16:13;101187.55;;;4.81;77.98
77005;BME280;67261;53.132;18.006;2024-01-27T02:18:40;101187.80;;;4.82;77.68
77005;BME280;67261;53.132;18.006;2024-01-27T02:21:06;101178.76;;;4.84;77.76
77005;BME280;67261;53.132;18.006;2024-01-27T02:23:33;101180.60;;;4.85;77.74
77005;BME280;67261;53.132;18.006;2024-01-27T02:26:00;101176.31;;;4.86;77.56
77005;BME280;67261;53.132;18.006;2024-01-27T02:28:27;101172.49;;;4.88;77.62
77005;BME280;67261;53.132;18.006;2024-01-27T02:30:58;101171.05;;;4.89;77.49
77005;BME280;67261;53.132;18.006;2024-01-27T02:33:26;101166.00;;;4.88;77.42
77005;BME280;67261;53.132;18.006;2024-01-27T02:35:53;101167.65;;;4.87;77.28
77005;BME280;67261;53.132;18.006;2024-01-27T02:38:20;101165.48;;;4.88;77.04
77005;BME280;67261;53.132;18.006;2024-01-27T02:40:47;101167.21;;;4.91;76.90
77005;BME280;67261;53.132;18.006;2024-01-27T02:43:16;101169.64;;;4.94;76.89
77005;BME280;67261;53.132;18.006;2024-01-27T02:45:43;101165.25;;;4.96;76.25
77005;BME280;67261;53.132;18.006;2024-01-27T02:48:10;101167.05;;;4.98;76.16
77005;BME280;67261;53.132;18.006;2024-01-27T02:50:37;101159.96;;;4.99;75.96
77005;BME280;67261;53.132;18.006;2024-01-27T02:53:03;101163.30;;;5.02;76.01
77005;BME280;67261;53.132;18.006;2024-01-27T02:55:30;101165.63;;;5.03;75.80
77005;BME280;67261;53.132;18.006;2024-01-27T02:57:57;101170.67;;;5.07;75.91
77005;BME280;67261;53.132;18.006;2024-01-27T03:00:24;101177.42;;;5.07;75.78
77005;BME280;67261;53.132;18.006;2024-01-27T03:02:51;101179.66;;;5.08;75.75
77005;BME280;67261;53.132;18.006;2024-01-27T03:05:17;101179.28;;;5.09;75.86
77005;BME280;67261;53.132;18.006;2024-01-27T03:07:44;101185.93;;;5.09;76.09
77005;BME280;67261;53.132;18.006;2024-01-27T03:10:11;101184.43;;;5.08;76.10
77005;BME280;67261;53.132;18.006;2024-01-27T03:12:38;101188.27;;;5.08;76.09
77005;BME280;67261;53.132;18.006;2024-01-27T03:15:05;101187.48;;;5.07;76.39
77005;BME280;67261;53.132;18.006;2024-01-27T03:17:32;101187.79;;;5.05;76.26
77005;BME280;67261;53.132;18.006;2024-01-27T03:19:59;101180.88;;;5.03;76.34
77005;BME280;67261;53.132;18.006;2024-01-27T03:22:25;101185.74;;;5.02;76.65
77005;BME280;67261;53.132;18.006;2024-01-27T03:24:52;101193.40;;;5.00;76.96
77005;BME280;67261;53.132;18.006;2024-01-27T03:27:21;101193.55;;;4.98;77.12
77005;BME280;67261;53.132;18.006;2024-01-27T03:29:48;101195.09;;;4.96;77.07
77005;BME280;67261;53.132;18.006;2024-01-27T03:32:15;101181.95;;;4.93;77.29
77005;BME280;67261;53.132;18.006;2024-01-27T03:34:45;101187.44;;;4.90;77.50
77005;BME280;67261;53.132;18.006;2024-01-27T03:37:12;101190.00;;;4.86;77.41
77005;BME280;67261;53.132;18.006;2024-01-27T03:39:41;101190.21;;;4.83;77.61
77005;BME280;67261;53.132;18.006;2024-01-27T03:42:08;101192.25;;;4.78;77.99
77005;BME280;67261;53.132;18.006;2024-01-27T03:44:35;101196.71;;;4.75;77.88
77005;BME280;67261;53.132;18.006;2024-01-27T03:47:02;101195.54;;;4.71;78.00
77005;BME280;67261;53.132;18.006;2024-01-27T03:49:29;101195.03;;;4.69;78.28
77005;BME280;67261;53.132;18.006;2024-01-27T03:51:56;101198.20;;;4.66;78.49
77005;BME280;67261;53.132;18.006;2024-01-27T03:54:22;101195.48;;;4.65;78.90
77005;BME280;67261;53.132;18.006;2024-01-27T03:56:49;101196.05;;;4.61;78.73
77005;BME280;67261;53.132;18.006;2024-01-27T03:59:16;101200.26;;;4.59;79.07
77005;BME280;67261;53.132;18.006;2024-01-27T04:01:43;101199.80;;;4.58;79.16
77005;BME280;67261;53.132;18.006;2024-01-27T04:04:10;101202.20;;;4.56;79.29
77005;BME280;67261;53.132;18.006;2024-01-27T04:06:37;101202.52;;;4.54;79.53
77005;BME280;67261;53.132;18.006;2024-01-27T04:09:04;101205.55;;;4.53;79.54
77005;BME280;67261;53.132;18.006;2024-01-27T04:11:31;101205.34;;;4.51;79.65
77005;BME280;67261;53.132;18.006;2024-01-27T04:13:58;101210.17;;;4.50;79.84
77005;BME280;67261;53.132;18.006;2024-01-27T04:16:25;101207.30;;;4.49;79.81
77005;BME280;67261;53.132;18.006;2024-01-27T04:18:53;101210.55;;;4.47;80.07
77005;BME280;67261;53.132;18.006;2024-01-27T04:21:20;101206.60;;;4.46;79.90
77005;BME280;67261;53.132;18.006;2024-01-27T04:23:47;101209.52;;;4.44;80.17
77005;BME280;67261;53.132;18.006;2024-01-27T04:26:14;101209.98;;;4.43;80.21
77005;BME280;67261;53.132;18.006;2024-01-27T04:28:41;101204.13;;;4.41;80.14
77005;BME280;67261;53.132;18.006;2024-01-27T04:31:08;101207.83;;;4.41;80.15
77005;BME280;67261;53.132;18.006;2024-01-27T04:33:34;101210.38;;;4.39;80.35
77005;BME280;67261;53.132;18.006;2024-01-27T04:36:01;101207.56;;;4.37;80.49
77005;BME280;67261;53.132;18.006;2024-01-27T04:38:28;101205.27;;;4.34;80.46
77005;BME280;67261;53.132;18.006;2024-01-27T04:40:55;101219.36;;;4.33;80.35
77005;BME280;67261;53.132;18.006;2024-01-27T04:43:22;101210.79;;;4.33;80.47
77005;BME280;67261;53.132;18.006;2024-01-27T04:45:49;101213.48;;;4.32;80.39
77005;BME280;67261;53.132;18.006;2024-01-27T04:48:16;101216.70;;;4.31;80.51
77005;BME280;67261;53.132;18.006;2024-01-27T04:50:43;101223.60;;;4.30;80.60
77005;BME280;67261;53.132;18.006;2024-01-27T04:53:10;101224.54;;;4.29;80.63
77005;BME280;67261;53.132;18.006;2024-01-27T04:55:37;101224.84;;;4.27;80.63
77005;BME280;67261;53.132;18.006;2024-01-27T04:58:06;101227.55;;;4.26;80.60
77005;BME280;67261;53.132;18.006;2024-01-27T05:00:33;101230.58;;;4.22;80.76
77005;BME280;67261;53.132;18.006;2024-01-27T05:03:00;101228.77;;;4.21;80.63
77005;BME280;67261;53.132;18.006;2024-01-27T05:05:31;101234.05;;;4.20;80.86
77005;BME280;67261;53.132;18.006;2024-01-27T05:07:57;101233.23;;;4.19;80.86
77005;BME280;67261;53.132;18.006;2024-01-27T05:10:24;101234.64;;;4.19;80.71
77005;BME280;67261;53.132;18.006;2024-01-27T05:12:52;101234.44;;;4.20;80.96
77005;BME280;67261;53.132;18.006;2024-01-27T05:15:19;101237.73;;;4.20;80.93
77005;BME280;67261;53.132;18.006;2024-01-27T05:17:45;101243.63;;;4.21;80.97
77005;BME280;67261;53.132;18.006;2024-01-27T05:20:12;101243.76;;;4.19;81.10
77005;BME280;67261;53.132;18.006;2024-01-27T05:22:39;101242.67;;;4.20;80.98
77005;BME280;67261;53.132;18.006;2024-01-27T05:25:06;101240.39;;;4.20;81.19
77005;BME280;67261;53.132;18.006;2024-01-27T05:27:34;101243.95;;;4.19;81.22
77005;BME280;67261;53.132;18.006;2024-01-27T05:30:01;101241.73;;;4.18;81.15
77005;BME280;67261;53.132;18.006;2024-01-27T05:32:27;101243.84;;;4.18;81.18
77005;BME280;67261;53.132;18.006;2024-01-27T05:34:54;101237.45;;;4.17;81.37
77005;BME280;67261;53.132;18.006;2024-01-27T05:37:21;101243.81;;;4.16;81.41
77005;BME280;67261;53.132;18.006;2024-01-27T05:39:48;101243.99;;;4.16;81.47
77005;BME280;67261;53.132;18.006;2024-01-27T05:42:15;101241.77;;;4.15;81.38
77005;BME280;67261;53.132;18.006;2024-01-27T05:44:42;101250.17;;;4.15;81.37
77005;BME280;67261;53.132;18.006;2024-01-27T05:47:09;101252.84;;;4.14;81.55
77005;BME280;67261;53.132;18.006;2024-01-27T05:49:37;101250.27;;;4.13;81.61
77005;BME280;67261;53.132;18.006;2024-01-27T05:52:04;101259.61;;;4.13;81.44
77005;BME280;67261;53.132;18.006;2024-01-27T05:54:31;101264.31;;;4.13;81.61
77005;BME280;67261;53.132;18.006;2024-01-27T05:56:59;101265.59;;;4.12;81.66
77005;BME280;67261;53.132;18.006;2024-01-27T05:59:26;101276.50;;;4.11;81.67
77005;BME280;67261;53.132;18.006;2024-01-27T06:01:53;101276.91;;;4.10;81.50
77005;BME280;67261;53.132;18.006;2024-01-27T06:04:20;101267.26;;;4.08;81.62
77005;BME280;67261;53.132;18.006;2024-01-27T06:06:46;101274.90;;;4.06;81.62
77005;BME280;67261;53.132;18.006;2024-01-27T06:09:14;101282.31;;;4.06;81.54
77005;BME280;67261;53.132;18.006;2024-01-27T06:11:41;101284.71;;;4.06;81.65
77005;BME280;67261;53.132;18.006;2024-01-27T06:14:07;101297.97;;;4.07;81.65
77005;BME280;67261;53.132;18.006;2024-01-27T06:16:34;101296.89;;;4.08;81.64
77005;BME280;67261;53.132;18.006;2024-01-27T06:19:02;101304.60;;;4.07;81.91
77005;BME280;67261;53.132;18.006;2024-01-27T06:21:29;101306.79;;;4.03;81.56
77005;BME280;67261;53.132;18.006;2024-01-27T06:23:55;101310.23;;;4.01;81.68
77005;BME280;67261;53.132;18.006;2024-01-27T06:26:23;101313.83;;;4.00;81.96
77005;BME280;67261;53.132;18.006;2024-01-27T06:28:50;101319.37;;;3.98;81.91
77005;BME280;67261;53.132;18.006;2024-01-27T06:31:17;101321.55;;;3.97;81.92
77005;BME280;67261;53.132;18.006;2024-01-27T06:33:44;101327.51;;;3.97;82.03
77005;BME280;67261;53.132;18.006;2024-01-27T06:36:11;101330.23;;;3.98;81.94
77005;BME280;67261;53.132;18.006;2024-01-27T06:38:37;101338.14;;;3.97;81.93
77005;BME280;67261;53.132;18.006;2024-01-27T06:41:04;101341.53;;;3.97;81.92
77005;BME280;67261;53.132;18.006;2024-01-27T06:43:31;101347.23;;;3.95;81.81
77005;BME280;67261;53.132;18.006;2024-01-27T06:45:58;101351.33;;;3.94;81.97
77005;BME280;67261;53.132;18.006;2024-01-27T06:48:25;101351.89;;;3.93;81.95
77005;BME280;67261;53.132;18.006;2024-01-27T06:50:53;101354.83;;;3.94;81.95
77005;BME280;67261;53.132;18.006;2024-01-27T06:53:19;101360.05;;;3.94;81.87
77005;BME280;67261;53.132;18.006;2024-01-27T06:55:47;101365.86;;;3.94;82.22
77005;BME280;67261;53.132;18.006;2024-01-27T06:58:15;101374.13;;;3.93;82.10
77005;BME280;67261;53.132;18.006;2024-01-27T07:00:42;101383.11;;;3.92;82.01
77005;BME280;67261;53.132;18.006;2024-01-27T07:03:09;101387.41;;;3.94;82.10
77005;BME280;67261;53.132;18.006;2024-01-27T07:05:36;101388.14;;;3.96;82.19
77005;BME280;67261;53.132;18.006;2024-01-27T07:08:07;101395.46;;;3.97;82.20
77005;BME280;67261;53.132;18.006;2024-01-27T07:10:35;101394.90;;;4.00;82.05
77005;BME280;67261;53.132;18.006;2024-01-27T07:13:03;101401.66;;;4.01;82.16
77005;BME280;67261;53.132;18.006;2024-01-27T07:15:30;101413.05;;;4.04;81.91
77005;BME280;67261;53.132;18.006;2024-01-27T07:17:57;101418.95;;;4.05;81.92
77005;BME280;67261;53.132;18.006;2024-01-27T07:20:25;101424.02;;;4.05;82.01
77005;BME280;67261;53.132;18.006;2024-01-27T07:22:52;101429.34;;;4.06;81.85
77005;BME280;67261;53.132;18.006;2024-01-27T07:25:20;101433.76;;;4.09;81.77
77005;BME280;67261;53.132;18.006;2024-01-27T07:27:47;101433.66;;;4.10;81.64
77005;BME280;67261;53.132;18.006;2024-01-27T07:30:14;101444.66;;;4.10;81.53
77005;BME280;67261;53.132;18.006;2024-01-27T07:32:41;101446.15;;;4.12;81.44
77005;BME280;67261;53.132;18.006;2024-01-27T07:35:08;101449.31;;;4.14;81.69
77005;BME280;67261;53.132;18.006;2024-01-27T07:37:35;101451.46;;;4.16;81.35
77005;BME280;67261;53.132;18.006;2024-01-27T07:40:02;101452.86;;;4.19;81.56
77005;BME280;67261;53.132;18.006;2024-01-27T07:42:29;101462.94;;;4.20;81.34
77005;BME280;67261;53.132;18.006;2024-01-27T07:44:56;101470.48;;;4.20;81.10
77005;BME280;67261;53.132;18.006;2024-01-27T07:47:24;101474.11;;;4.21;81.25
77005;BME280;67261;53.132;18.006;2024-01-27T07:49:50;101476.73;;;4.21;81.16
77005;BME280;67261;53.132;18.006;2024-01-27T07:52:17;101492.42;;;4.22;81.03
77005;BME280;67261;53.132;18.006;2024-01-27T07:54:45;101497.94;;;4.21;81.01
77005;BME280;67261;53.132;18.006;2024-01-27T07:57:12;101499.90;;;4.17;81.00
77005;BME280;67261;53.132;18.006;2024-01-27T07:59:41;101500.42;;;4.12;81.15
77005;BME280;67261;53.132;18.006;2024-01-27T08:02:10;101510.02;;;4.07;81.29
77005;BME280;67261;53.132;18.006;2024-01-27T08:04:39;101516.55;;;4.03;81.45
77005;BME280;67261;53.132;18.006;2024-01-27T08:07:06;101515.16;;;4.03;81.40
77005;BME280;67261;53.132;18.006;2024-01-27T08:09:36;101523.48;;;4.04;81.53
77005;BME280;67261;53.132;18.006;2024-01-27T08:12:04;101522.87;;;4.03;81.75
77005;BME280;67261;53.132;18.006;2024-01-27T08:14:31;101528.48;;;4.03;81.60
77005;BME280;67261;53.132;18.006;2024-01-27T08:17:00;101535.14;;;4.00;81.69
77005;BME280;67261;53.132;18.006;2024-01-27T08:19:27;101542.16;;;3.97;81.64
77005;BME280;67261;53.132;18.006;2024-01-27T08:21:54;101546.73;;;3.96;81.59
77005;BME280;67261;53.132;18.006;2024-01-27T08:24:21;101556.16;;;4.00;81.60
77005;BME280;67261;53.132;18.006;2024-01-27T08:26:50;101555.67;;;4.02;81.66
77005;BME280;67261;53.132;18.006;2024-01-27T08:29:17;101560.25;;;4.01;81.57
77005;BME280;67261;53.132;18.006;2024-01-27T08:31:44;101565.36;;;4.01;81.71
77005;BME280;67261;53.132;18.006;2024-01-27T08:34:11;101565.92;;;4.03;81.92
77005;BME280;67261;53.132;18.006;2024-01-27T08:36:39;101573.95;;;4.07;81.86
77005;BME280;67261;53.132;18.006;2024-01-27T08:39:06;101578.95;;;4.11;81.99
77005;BME280;67261;53.132;18.006;2024-01-27T08:41:36;101583.08;;;4.15;81.90
77005;BME280;67261;53.132;18.006;2024-01-27T08:44:03;101589.34;;;4.21;81.82
77005;BME280;67261;53.132;18.006;2024-01-27T08:46:30;101589.73;;;4.29;81.71
77005;BME280;67261;53.132;18.006;2024-01-27T08:48:57;101595.94;;;4.37;81.59
77005;BME280;67261;53.132;18.006;2024-01-27T08:51:24;101600.64;;;4.40;81.40
77005;BME280;67261;53.132;18.006;2024-01-27T08:53:51;101605.04;;;4.40;81.50
77005;BME280;67261;53.132;18.006;2024-01-27T08:56:18;101606.87;;;4.39;81.29
77005;BME280;67261;53.132;18.006;2024-01-27T08:58:45;101614.04;;;4.39;81.30
77005;BME280;67261;53.132;18.006;2024-01-27T09:01:16;101616.23;;;4.43;81.27
77005;BME280;67261;53.132;18.006;2024-01-27T09:03:43;101627.25;;;4.49;81.09
77005;BME280;67261;53.132;18.006;2024-01-27T09:06:10;101633.28;;;4.54;80.77
77005;BME280;67261;53.132;18.006;2024-01-27T09:08:37;101630.83;;;4.56;80.77
77005;BME280;67261;53.132;18.006;2024-01-27T09:11:04;101639.16;;;4.60;80.81
77005;BME280;67261;53.132;18.006;2024-01-27T09:13:31;101646.68;;;4.66;80.48
77005;BME280;67261;53.132;18.006;2024-01-27T09:15:58;101650.84;;;4.70;80.20
77005;BME280;67261;53.132;18.006;2024-01-27T09:18:26;101659.42;;;4.76;80.14
77005;BME280;67261;53.132;18.006;2024-01-27T09:20:53;101667.16;;;4.81;79.99
77005;BME280;67261;53.132;18.006;2024-01-27T09:23:20;101674.37;;;4.87;79.88
77005;BME280;67261;53.132;18.006;2024-01-27T09:25:47;101675.80;;;4.92;79.91
77005;BME280;67261;53.132;18.006;2024-01-27T09:28:14;101675.58;;;4.98;79.98
77005;BME280;67261;53.132;18.006;2024-01-27T09:30:42;101682.21;;;5.04;79.60
77005;BME280;67261;53.132;18.006;2024-01-27T09:33:09;101687.48;;;5.04;79.18
77005;BME280;67261;53.132;18.006;2024-01-27T09:35:36;101693.09;;;5.04;79.15
77005;BME280;67261;53.132;18.006;2024-01-27T09:38:04;101703.19;;;5.00;79.10
77005;BME280;67261;53.132;18.006;2024-01-27T09:40:31;101708.05;;;4.95;79.13
77005;BME280;67261;53.132;18.006;2024-01-27T09:42:59;101709.42;;;4.93;79.09
77005;BME280;67261;53.132;18.006;2024-01-27T09:45:26;101717.66;;;4.90;79.22
77005;BME280;67261;53.132;18.006;2024-01-27T09:47:56;101722.36;;;4.88;79.23
77005;BME280;67261;53.132;18.006;2024-01-27T09:50:24;101727.19;;;4.83;79.37
77005;BME280;67261;53.132;18.006;2024-01-27T09:52:52;101733.25;;;4.78;79.54
77005;BME280;67261;53.132;18.006;2024-01-27T09:55:19;101738.26;;;4.76;79.41
77005;BME280;67261;53.132;18.006;2024-01-27T09:57:46;101748.13;;;4.76;79.30
77005;BME280;67261;53.132;18.006;2024-01-27T10:00:14;101752.02;;;4.75;79.23
77005;BME280;67261;53.132;18.006;2024-01-27T10:02:45;101754.93;;;4.76;79.12
77005;BME280;67261;53.132;18.006;2024-01-27T10:05:14;101764.69;;;4.77;78.93
77005;BME280;67261;53.132;18.006;2024-01-27T10:07:41;101765.02;;;4.81;78.57
77005;BME280;67261;53.132;18.006;2024-01-27T10:10:09;101772.84;;;4.82;78.17
77005;BME280;67261;53.132;18.006;2024-01-27T10:12:40;101776.77;;;4.84;78.18
77005;BME280;67261;53.132;18.006;2024-01-27T10:15:21;101780.77;;;4.84;77.85
77005;BME280;67261;53.132;18.006;2024-01-27T10:17:48;101785.27;;;4.85;77.66
77005;BME280;67261;53.132;18.006;2024-01-27T10:20:15;101785.77;;;4.89;77.92
77005;BME280;67261;53.132;18.006;2024-01-27T10:22:45;101790.56;;;4.94;77.80
77005;BME280;67261;53.132;18.006;2024-01-27T10:25:12;101791.50;;;4.98;77.10
77005;BME280;67261;53.132;18.006;2024-01-27T10:27:39;101799.14;;;5.02;77.01
77005;BME280;67261;53.132;18.006;2024-01-27T10:30:14;101801.14;;;5.07;77.15
77005;BME280;67261;53.132;18.006;2024-01-27T10:32:41;101803.27;;;5.10;77.03
77005;BME280;67261;53.132;18.006;2024-01-27T10:35:09;101811.98;;;5.13;76.89
77005;BME280;67261;53.132;18.006;2024-01-27T10:37:37;101817.27;;;5.16;76.31
77005;BME280;67261;53.132;18.006;2024-01-27T10:40:06;101822.25;;;5.17;76.36
77005;BME280;67261;53.132;18.006;2024-01-27T10:42:43;101829.64;;;5.20;76.18
77005;BME280;67261;53.132;18.006;2024-01-27T10:45:11;101835.42;;;5.23;76.30
77005;BME280;67261;53.132;18.006;2024-01-27T10:47:39;101829.27;;;5.29;76.31
77005;BME280;67261;53.132;18.006;2024-01-27T10:50:10;101838.09;;;5.34;76.44
77005;BME280;67261;53.132;18.006;2024-01-27T10:52:41;101844.12;;;5.36;76.30
77005;BME280;67261;53.132;18.006;2024-01-27T10:55:12;101848.89;;;5.38;76.09
77005;BME280;67261;53.132;18.006;2024-01-27T10:57:39;101846.48;;;5.40;75.79
77005;BME280;67261;53.132;18.006;2024-01-27T11:00:07;101855.18;;;5.41;75.31
77005;BME280;67261;53.132;18.006;2024-01-27T11:02:37;101859.72;;;5.39;75.60
77005;BME280;67261;53.132;18.006;2024-01-27T11:05:05;101864.72;;;5.38;75.87
77005;BME280;67261;53.132;18.006;2024-01-27T11:07:34;101868.20;;;5.38;75.75
77005;BME280;67261;53.132;18.006;2024-01-27T11:10:01;101867.39;;;5.40;75.44
77005;BME280;67261;53.132;18.006;2024-01-27T11:12:30;101873.52;;;5.43;75.45
77005;BME280;67261;53.132;18.006;2024-01-27T11:14:57;101882.08;;;5.44;75.48
77005;BME280;67261;53.132;18.006;2024-01-27T11:17:41;101888.60;;;5.46;75.31
77005;BME280;67261;53.132;18.006;2024-01-27T11:20:11;101892.88;;;5.45;75.38
77005;BME280;67261;53.132;18.006;2024-01-27T11:22:38;101895.06;;;5.47;75.47
77005;BME280;67261;53.132;18.006;2024-01-27T11:27:43;101909.10;;;5.52;75.00
77005;BME280;67261;53.132;18.006;2024-01-27T11:30:29;101916.64;;;5.56;74.46
77005;BME280;67261;53.132;18.006;2024-01-27T11:32:57;101915.96;;;5.61;74.91
77005;BME280;67261;53.132;18.006;2024-01-27T11:35:24;101923.95;;;5.68;74.80
77005;BME280;67261;53.132;18.006;2024-01-27T11:37:51;101923.56;;;5.74;74.38
77005;BME280;67261;53.132;18.006;2024-01-27T11:40:19;101928.11;;;5.78;73.76
77005;BME280;67261;53.132;18.006;2024-01-27T11:43:00;101933.36;;;5.81;73.76
77005;BME280;67261;53.132;18.006;2024-01-27T11:45:27;101937.11;;;5.83;73.73
77005;BME280;67261;53.132;18.006;2024-01-27T11:47:56;101942.51;;;5.87;74.20
77005;BME280;67261;53.132;18.006;2024-01-27T11:50:23;101947.82;;;5.89;73.88
77005;BME280;67261;53.132;18.006;2024-01-27T11:52:50;101953.05;;;5.89;74.01
77005;BME280;67261;53.132;18.006;2024-01-27T11:55:17;101956.98;;;5.91;74.10
77005;BME280;67261;53.132;18.006;2024-01-27T11:57:45;101969.00;;;5.96;74.15
77005;BME280;67261;53.132;18.006;2024-01-27T12:00:13;101971.14;;;6.01;73.89
77005;BME280;67261;53.132;18.006;2024-01-27T12:02:42;101978.34;;;6.04;74.04
77005;BME280;67261;53.132;18.006;2024-01-27T12:05:09;101983.05;;;6.07;73.70
77005;BME280;67261;53.132;18.006;2024-01-27T12:07:37;101991.67;;;6.10;73.64
77005;BME280;67261;53.132;18.006;2024-01-27T12:10:04;101992.94;;;6.12;73.55
77005;BME280;67261;53.132;18.006;2024-01-27T12:12:32;102001.16;;;6.12;73.28
77005;BME280;67261;53.132;18.006;2024-01-27T12:14:59;102002.11;;;6.14;73.59
77005;BME280;67261;53.132;18.006;2024-01-27T12:17:29;102002.28;;;6.20;73.47
77005;BME280;67261;53.132;18.006;2024-01-27T12:19:56;102006.64;;;6.26;73.49
77005;BME280;67261;53.132;18.006;2024-01-27T12:22:25;102010.48;;;6.32;73.38
77005;BME280;67261;53.132;18.006;2024-01-27T12:25:07;102015.73;;;6.38;72.74
77005;BME280;67261;53.132;18.006;2024-01-27T12:27:35;102019.07;;;6.38;72.64
77005;BME280;67261;53.132;18.006;2024-01-27T12:30:02;102025.81;;;6.40;72.29
77005;BME280;67261;53.132;18.006;2024-01-27T12:32:31;102030.13;;;6.41;71.44
77005;BME280;67261;53.132;18.006;2024-01-27T12:34:58;102037.24;;;6.40;72.27
77005;BME280;67261;53.132;18.006;2024-01-27T12:37:27;102034.54;;;6.41;71.93
77005;BME280;67261;53.132;18.006;2024-01-27T12:39:55;102039.23;;;6.42;71.33
77005;BME280;67261;53.132;18.006;2024-01-27T12:42:22;102040.30;;;6.41;71.25
77005;BME280;67261;53.132;18.006;2024-01-27T12:44:48;102046.20;;;6.46;71.93
77005;BME280;67261;53.132;18.006;2024-01-27T12:47:18;102049.70;;;6.49;71.24
77005;BME280;67261;53.132;18.006;2024-01-27T12:49:46;102053.95;;;6.51;71.72
77005;BME280;67261;53.132;18.006;2024-01-27T12:52:13;102058.76;;;6.53;71.04
77005;BME280;67261;53.132;18.006;2024-01-27T12:54:41;102059.80;;;6.53;70.97